sensor_id;sensor_type;location;lat;lon;timestamp;P1;durP1;ratioP1;P2;durP2;ratioP2
1759;SDS011;877;46.266;20.062;2023-05-07T00:00:21;7.40;;;5.80;;
1759;SDS011;877;46.266;20.062;2023-05-07T00:02:48;10.80;;;5.73;;
1759;SDS011;877;46.266;20.062;2023-05-07T00:05:14;6.83;;;5.77;;
1759;SDS011;877;46.266;20.062;2023-05-07T00:10:10;9.83;;;5.90;;
1759;SDS011;877;46.266;20.062;2023-05-07T00:12:38;8.23;;;5.80;;
1759;SDS011;877;46.266;20.062;2023-05-07T00:15:06;6.97;;;5.87;;
1759;SDS011;877;46.266;20.062;2023-05-07T00:17:33;7.17;;;5.53;;
1759;SDS011;877;46.266;20.062;2023-05-07T00:20:00;8.80;;;5.60;;
1759;SDS011;877;46.266;20.062;2023-05-07T00:22:27;7.37;;;5.93;;
1759;SDS011;877;46.266;20.062;2023-05-07T00:25:02;8.50;;;6.13;;
1759;SDS011;877;46.266;20.062;2023-05-07T00:27:29;9.40;;;6.47;;
1759;SDS011;877;46.266;20.062;2023-05-07T00:29:55;15.40;;;6.30;;
1759;SDS011;877;46.266;20.062;2023-05-07T00:32:22;9.90;;;6.70;;
1759;SDS011;877;46.266;20.062;2023-05-07T00:34:53;5.77;;;4.90;;
1759;SDS011;877;46.266;20.062;2023-05-07T00:37:21;9.80;;;5.37;;
1759;SDS011;877;46.266;20.062;2023-05-07T00:39:47;6.57;;;5.70;;
1759;SDS011;877;46.266;20.062;2023-05-07T00:42:15;8.63;;;5.70;;
1759;SDS011;877;46.266;20.062;2023-05-07T00:44:42;8.73;;;6.20;;
1759;SDS011;877;46.266;20.062;2023-05-07T00:47:08;7.73;;;5.50;;
1759;SDS011;877;46.266;20.062;2023-05-07T00:49:38;8.00;;;5.13;;
1759;SDS011;877;46.266;20.062;2023-05-07T00:52:06;7.30;;;5.63;;
1759;SDS011;877;46.266;20.062;2023-05-07T00:54:33;10.50;;;5.40;;
1759;SDS011;877;46.266;20.062;2023-05-07T00:56:59;6.13;;;5.07;;
1759;SDS011;877;46.266;20.062;2023-05-07T00:59:27;6.50;;;5.43;;
1759;SDS011;877;46.266;20.062;2023-05-07T01:01:53;7.63;;;5.93;;
1759;SDS011;877;46.266;20.062;2023-05-07T01:04:21;8.90;;;5.30;;
1759;SDS011;877;46.266;20.062;2023-05-07T01:06:49;7.47;;;6.07;;
1759;SDS011;877;46.266;20.062;2023-05-07T01:09:15;7.50;;;5.77;;
1759;SDS011;877;46.266;20.062;2023-05-07T01:11:41;6.30;;;5.23;;
1759;SDS011;877;46.266;20.062;2023-05-07T01:16:59;7.80;;;6.20;;
1759;SDS011;877;46.266;20.062;2023-05-07T01:19:26;7.20;;;6.17;;
1759;SDS011;877;46.266;20.062;2023-05-07T01:21:56;12.83;;;5.73;;
1759;SDS011;877;46.266;20.062;2023-05-07T01:24:25;7.60;;;5.53;;
1759;SDS011;877;46.266;20.062;2023-05-07T01:26:51;8.13;;;6.57;;
1759;SDS011;877;46.266;20.062;2023-05-07T01:29:18;9.17;;;6.00;;
1759;SDS011;877;46.266;20.062;2023-05-07T01:31:44;7.67;;;6.17;;
1759;SDS011;877;46.266;20.062;2023-05-07T01:34:13;11.00;;;7.00;;
1759;SDS011;877;46.266;20.062;2023-05-07T01:36:40;8.23;;;7.43;;
1759;SDS011;877;46.266;20.062;2023-05-07T01:39:09;12.23;;;9.33;;
1759;SDS011;877;46.266;20.062;2023-05-07T01:41:36;15.03;;;10.70;;
1759;SDS011;877;46.266;20.062;2023-05-07T01:44:03;16.30;;;12.50;;
1759;SDS011;877;46.266;20.062;2023-05-07T01:46:30;19.73;;;14.57;;
1759;SDS011;877;46.266;20.062;2023-05-07T01:48:59;17.00;;;14.30;;
1759;SDS011;877;46.266;20.062;2023-05-07T01:51:25;18.80;;;13.97;;
1759;SDS011;877;46.266;20.062;2023-05-07T01:53:52;17.77;;;14.50;;
1759;SDS011;877;46.266;20.062;2023-05-07T01:56:18;17.60;;;14.43;;
1759;SDS011;877;46.266;20.062;2023-05-07T01:58:46;15.20;;;12.97;;
1759;SDS011;877;46.266;20.062;2023-05-07T02:01:12;14.73;;;12.40;;
1759;SDS011;877;46.266;20.062;2023-05-07T02:03:39;15.03;;;12.63;;
1759;SDS011;877;46.266;20.062;2023-05-07T02:06:05;12.40;;;9.90;;
1759;SDS011;877;46.266;20.062;2023-05-07T02:08:31;12.97;;;11.13;;
1759;SDS011;877;46.266;20.062;2023-05-07T02:11:01;12.37;;;11.00;;
1759;SDS011;877;46.266;20.062;2023-05-07T02:13:31;9.90;;;8.50;;
1759;SDS011;877;46.266;20.062;2023-05-07T02:15:58;13.90;;;9.07;;
1759;SDS011;877;46.266;20.062;2023-05-07T02:18:24;9.00;;;7.93;;
1759;SDS011;877;46.266;20.062;2023-05-07T02:20:50;10.83;;;7.63;;
1759;SDS011;877;46.266;20.062;2023-05-07T02:23:17;12.30;;;8.17;;
1759;SDS011;877;46.266;20.062;2023-05-07T02:25:43;10.00;;;8.00;;
1759;SDS011;877;46.266;20.062;2023-05-07T02:28:09;8.63;;;7.23;;
1759;SDS011;877;46.266;20.062;2023-05-07T02:30:36;7.80;;;6.90;;
1759;SDS011;877;46.266;20.062;2023-05-07T02:33:03;8.93;;;6.67;;
1759;SDS011;877;46.266;20.062;2023-05-07T02:35:29;7.83;;;6.80;;
1759;SDS011;877;46.266;20.062;2023-05-07T02:37:56;7.80;;;6.50;;
1759;SDS011;877;46.266;20.062;2023-05-07T02:45:25;6.90;;;5.93;;
1759;SDS011;877;46.266;20.062;2023-05-07T02:47:52;7.63;;;6.30;;
1759;SDS011;877;46.266;20.062;2023-05-07T02:50:18;13.20;;;7.07;;
1759;SDS011;877;46.266;20.062;2023-05-07T02:52:44;9.77;;;6.80;;
1759;SDS011;877;46.266;20.062;2023-05-07T02:55:10;7.60;;;6.47;;
1759;SDS011;877;46.266;20.062;2023-05-07T02:57:42;10.80;;;8.20;;
1759;SDS011;877;46.266;20.062;2023-05-07T03:00:14;8.50;;;6.90;;
1759;SDS011;877;46.266;20.062;2023-05-07T03:02:41;8.40;;;6.90;;
1759;SDS011;877;46.266;20.062;2023-05-07T03:05:07;10.00;;;6.47;;
1759;SDS011;877;46.266;20.062;2023-05-07T03:07:37;8.23;;;6.10;;
1759;SDS011;877;46.266;20.062;2023-05-07T03:10:04;9.17;;;6.97;;
1759;SDS011;877;46.266;20.062;2023-05-07T03:12:31;9.03;;;7.03;;
1759;SDS011;877;46.266;20.062;2023-05-07T03:15:04;7.43;;;6.27;;
1759;SDS011;877;46.266;20.062;2023-05-07T03:17:31;8.47;;;7.00;;
1759;SDS011;877;46.266;20.062;2023-05-07T03:19:57;8.17;;;6.80;;
1759;SDS011;877;46.266;20.062;2023-05-07T03:22:24;9.40;;;6.53;;
1759;SDS011;877;46.266;20.062;2023-05-07T03:24:52;9.47;;;6.80;;
1759;SDS011;877;46.266;20.062;2023-05-07T03:27:21;7.63;;;6.73;;
1759;SDS011;877;46.266;20.062;2023-05-07T03:29:47;9.13;;;7.30;;
1759;SDS011;877;46.266;20.062;2023-05-07T03:32:14;9.93;;;7.13;;
1759;SDS011;877;46.266;20.062;2023-05-07T03:34:41;10.80;;;7.57;;
1759;SDS011;877;46.266;20.062;2023-05-07T03:37:07;9.93;;;6.73;;
1759;SDS011;877;46.266;20.062;2023-05-07T03:39:33;10.27;;;7.37;;
1759;SDS011;877;46.266;20.062;2023-05-07T03:44:33;12.10;;;7.00;;
1759;SDS011;877;46.266;20.062;2023-05-07T03:47:01;9.57;;;7.30;;
1759;SDS011;877;46.266;20.062;2023-05-07T03:49:28;9.10;;;6.90;;
1759;SDS011;877;46.266;20.062;2023-05-07T03:51:54;9.10;;;7.37;;
1759;SDS011;877;46.266;20.062;2023-05-07T03:54:21;15.07;;;7.80;;
1759;SDS011;877;46.266;20.062;2023-05-07T03:56:48;9.17;;;7.17;;
1759;SDS011;877;46.266;20.062;2023-05-07T03:59:14;9.33;;;7.40;;
1759;SDS011;877;46.266;20.062;2023-05-07T04:01:41;8.90;;;7.80;;
1759;SDS011;877;46.266;20.062;2023-05-07T04:04:07;8.30;;;6.87;;
1759;SDS011;877;46.266;20.062;2023-05-07T04:06:33;9.87;;;8.00;;
1759;SDS011;877;46.266;20.062;2023-05-07T04:08:59;9.37;;;7.20;;
1759;SDS011;877;46.266;20.062;2023-05-07T04:11:26;8.90;;;7.03;;
1759;SDS011;877;46.266;20.062;2023-05-07T04:13:53;10.00;;;8.00;;
1759;SDS011;877;46.266;20.062;2023-05-07T04:16:19;9.13;;;7.40;;
1759;SDS011;877;46.266;20.062;2023-05-07T04:18:45;9.00;;;7.50;;
1759;SDS011;877;46.266;20.062;2023-05-07T04:21:15;10.53;;;7.47;;
1759;SDS011;877;46.266;20.062;2023-05-07T04:23:42;8.90;;;7.30;;
1759;SDS011;877;46.266;20.062;2023-05-07T04:26:08;12.50;;;7.93;;
1759;SDS011;877;46.266;20.062;2023-05-07T04:28:34;10.47;;;7.83;;
1759;SDS011;877;46.266;20.062;2023-05-07T04:31:01;9.70;;;6.90;;
1759;SDS011;877;46.266;20.062;2023-05-07T04:33:27;8.40;;;7.60;;
1759;SDS011;877;46.266;20.062;2023-05-07T04:35:53;10.57;;;7.40;;
1759;SDS011;877;46.266;20.062;2023-05-07T04:38:20;8.83;;;7.33;;
1759;SDS011;877;46.266;20.062;2023-05-07T04:40:46;9.10;;;7.47;;
1759;SDS011;877;46.266;20.062;2023-05-07T04:43:12;9.43;;;7.57;;
1759;SDS011;877;46.266;20.062;2023-05-07T04:45:40;9.33;;;7.50;;
1759;SDS011;877;46.266;20.062;2023-05-07T04:48:06;9.93;;;8.10;;
1759;SDS011;877;46.266;20.062;2023-05-07T04:50:34;7.30;;;6.50;;
1759;SDS011;877;46.266;20.062;2023-05-07T04:53:00;13.40;;;7.00;;
1759;SDS011;877;46.266;20.062;2023-05-07T04:55:27;9.63;;;7.33;;
1759;SDS011;877;46.266;20.062;2023-05-07T04:57:53;9.80;;;6.70;;
1759;SDS011;877;46.266;20.062;2023-05-07T05:00:19;12.50;;;7.43;;
1759;SDS011;877;46.266;20.062;2023-05-07T05:02:47;9.73;;;7.20;;
1759;SDS011;877;46.266;20.062;2023-05-07T05:05:13;8.80;;;7.60;;
1759;SDS011;877;46.266;20.062;2023-05-07T05:07:39;8.43;;;6.80;;
1759;SDS011;877;46.266;20.062;2023-05-07T05:10:05;9.87;;;6.83;;
1759;SDS011;877;46.266;20.062;2023-05-07T05:12:31;9.47;;;7.00;;
1759;SDS011;877;46.266;20.062;2023-05-07T05:14:57;8.60;;;7.10;;
1759;SDS011;877;46.266;20.062;2023-05-07T05:17:24;8.07;;;6.27;;
1759;SDS011;877;46.266;20.062;2023-05-07T05:19:50;7.70;;;6.73;;
1759;SDS011;877;46.266;20.062;2023-05-07T05:22:16;8.33;;;7.00;;
1759;SDS011;877;46.266;20.062;2023-05-07T05:24:42;8.93;;;7.10;;
1759;SDS011;877;46.266;20.062;2023-05-07T05:27:08;8.70;;;7.07;;
1759;SDS011;877;46.266;20.062;2023-05-07T05:29:34;8.20;;;6.50;;
1759;SDS011;877;46.266;20.062;2023-05-07T05:32:00;8.80;;;6.43;;
1759;SDS011;877;46.266;20.062;2023-05-07T05:34:28;11.73;;;6.67;;
1759;SDS011;877;46.266;20.062;2023-05-07T05:36:54;8.00;;;5.90;;
1759;SDS011;877;46.266;20.062;2023-05-07T05:39:20;8.43;;;7.03;;
1759;SDS011;877;46.266;20.062;2023-05-07T05:41:48;8.50;;;6.80;;
1759;SDS011;877;46.266;20.062;2023-05-07T05:44:14;9.73;;;7.30;;
1759;SDS011;877;46.266;20.062;2023-05-07T05:46:40;12.00;;;7.40;;
1759;SDS011;877;46.266;20.062;2023-05-07T05:49:06;9.07;;;6.43;;
1759;SDS011;877;46.266;20.062;2023-05-07T05:51:33;10.50;;;7.50;;
1759;SDS011;877;46.266;20.062;2023-05-07T05:53:59;7.50;;;6.70;;
1759;SDS011;877;46.266;20.062;2023-05-07T05:56:26;7.77;;;6.40;;
1759;SDS011;877;46.266;20.062;2023-05-07T05:58:52;8.80;;;6.40;;
1759;SDS011;877;46.266;20.062;2023-05-07T06:01:18;9.33;;;6.70;;
1759;SDS011;877;46.266;20.062;2023-05-07T06:03:44;12.43;;;7.07;;
1759;SDS011;877;46.266;20.062;2023-05-07T06:06:10;11.27;;;7.00;;
1759;SDS011;877;46.266;20.062;2023-05-07T06:08:37;8.60;;;6.50;;
1759;SDS011;877;46.266;20.062;2023-05-07T06:11:03;7.60;;;6.13;;
1759;SDS011;877;46.266;20.062;2023-05-07T06:13:29;6.70;;;5.70;;
1759;SDS011;877;46.266;20.062;2023-05-07T06:15:57;7.43;;;5.90;;
1759;SDS011;877;46.266;20.062;2023-05-07T06:18:23;9.70;;;6.20;;
1759;SDS011;877;46.266;20.062;2023-05-07T06:20:51;8.53;;;6.97;;
1759;SDS011;877;46.266;20.062;2023-05-07T06:23:17;8.43;;;6.20;;
1759;SDS011;877;46.266;20.062;2023-05-07T06:25:49;9.50;;;6.57;;
1759;SDS011;877;46.266;20.062;2023-05-07T06:28:16;9.70;;;6.00;;
1759;SDS011;877;46.266;20.062;2023-05-07T06:30:42;8.93;;;6.03;;
1759;SDS011;877;46.266;20.062;2023-05-07T06:33:08;14.63;;;6.60;;
1759;SDS011;877;46.266;20.062;2023-05-07T06:35:34;6.40;;;5.17;;
1759;SDS011;877;46.266;20.062;2023-05-07T06:38:00;7.10;;;5.60;;
1759;SDS011;877;46.266;20.062;2023-05-07T06:40:27;9.93;;;5.47;;
1759;SDS011;877;46.266;20.062;2023-05-07T06:42:53;8.23;;;5.80;;
1759;SDS011;877;46.266;20.062;2023-05-07T06:45:19;9.10;;;6.00;;
1759;SDS011;877;46.266;20.062;2023-05-07T06:47:45;8.23;;;6.20;;
1759;SDS011;877;46.266;20.062;2023-05-07T06:50:12;9.07;;;5.53;;
1759;SDS011;877;46.266;20.062;2023-05-07T06:52:38;6.90;;;6.17;;
1759;SDS011;877;46.266;20.062;2023-05-07T06:55:04;8.40;;;5.87;;
1759;SDS011;877;46.266;20.062;2023-05-07T06:57:31;7.87;;;5.80;;
1759;SDS011;877;46.266;20.062;2023-05-07T06:59:58;6.90;;;6.00;;
1759;SDS011;877;46.266;20.062;2023-05-07T07:02:25;6.40;;;5.00;;
1759;SDS011;877;46.266;20.062;2023-05-07T07:04:51;9.73;;;5.70;;
1759;SDS011;877;46.266;20.062;2023-05-07T07:07:18;6.37;;;4.87;;
1759;SDS011;877;46.266;20.062;2023-05-07T07:09:44;17.60;;;5.90;;
1759;SDS011;877;46.266;20.062;2023-05-07T07:12:10;10.03;;;5.77;;
1759;SDS011;877;46.266;20.062;2023-05-07T07:14:37;7.63;;;5.80;;
1759;SDS011;877;46.266;20.062;2023-05-07T07:17:04;18.77;;;5.80;;
1759;SDS011;877;46.266;20.062;2023-05-07T07:19:31;7.97;;;5.43;;
1759;SDS011;877;46.266;20.062;2023-05-07T07:21:57;7.83;;;6.00;;
1759;SDS011;877;46.266;20.062;2023-05-07T07:24:23;9.83;;;6.03;;
1759;SDS011;877;46.266;20.062;2023-05-07T07:26:49;9.03;;;5.60;;
1759;SDS011;877;46.266;20.062;2023-05-07T07:29:16;8.87;;;5.17;;
1759;SDS011;877;46.266;20.062;2023-05-07T07:31:43;6.30;;;5.13;;
1759;SDS011;877;46.266;20.062;2023-05-07T07:34:09;7.43;;;5.60;;
1759;SDS011;877;46.266;20.062;2023-05-07T07:36:35;8.10;;;5.50;;
1759;SDS011;877;46.266;20.062;2023-05-07T07:39:02;6.83;;;5.40;;
1759;SDS011;877;46.266;20.062;2023-05-07T07:41:28;9.70;;;4.97;;
1759;SDS011;877;46.266;20.062;2023-05-07T07:43:54;7.50;;;4.83;;
1759;SDS011;877;46.266;20.062;2023-05-07T07:46:21;9.03;;;4.80;;
1759;SDS011;877;46.266;20.062;2023-05-07T07:48:47;5.93;;;4.90;;
1759;SDS011;877;46.266;20.062;2023-05-07T07:51:13;5.77;;;4.77;;
1759;SDS011;877;46.266;20.062;2023-05-07T07:53:41;7.97;;;5.30;;
1759;SDS011;877;46.266;20.062;2023-05-07T07:56:07;6.57;;;5.40;;
1759;SDS011;877;46.266;20.062;2023-05-07T07:58:33;8.03;;;5.30;;
1759;SDS011;877;46.266;20.062;2023-05-07T08:01:00;7.77;;;5.50;;
1759;SDS011;877;46.266;20.062;2023-05-07T08:03:27;8.10;;;4.73;;
1759;SDS011;877;46.266;20.062;2023-05-07T08:05:53;6.17;;;4.83;;
1759;SDS011;877;46.266;20.062;2023-05-07T08:08:19;17.73;;;5.30;;
1759;SDS011;877;46.266;20.062;2023-05-07T08:10:45;6.67;;;5.30;;
1759;SDS011;877;46.266;20.062;2023-05-07T08:13:13;5.40;;;4.33;;
1759;SDS011;877;46.266;20.062;2023-05-07T08:15:39;7.73;;;5.20;;
1759;SDS011;877;46.266;20.062;2023-05-07T08:18:05;5.90;;;4.70;;
1759;SDS011;877;46.266;20.062;2023-05-07T08:20:32;6.87;;;4.87;;
1759;SDS011;877;46.266;20.062;2023-05-07T08:23:02;6.43;;;4.50;;
1759;SDS011;877;46.266;20.062;2023-05-07T08:25:28;4.70;;;4.13;;
1759;SDS011;877;46.266;20.062;2023-05-07T08:27:54;6.23;;;4.33;;
1759;SDS011;877;46.266;20.062;2023-05-07T08:30:20;6.43;;;4.60;;
1759;SDS011;877;46.266;20.062;2023-05-07T08:32:48;5.30;;;4.30;;
1759;SDS011;877;46.266;20.062;2023-05-07T08:35:15;5.77;;;4.60;;
1759;SDS011;877;46.266;20.062;2023-05-07T08:37:41;5.77;;;3.60;;
1759;SDS011;877;46.266;20.062;2023-05-07T08:40:07;5.43;;;4.30;;
1759;SDS011;877;46.266;20.062;2023-05-07T08:42:37;6.13;;;3.97;;
1759;SDS011;877;46.266;20.062;2023-05-07T08:45:03;5.13;;;4.10;;
1759;SDS011;877;46.266;20.062;2023-05-07T08:47:34;4.17;;;3.53;;
1759;SDS011;877;46.266;20.062;2023-05-07T08:50:01;6.93;;;3.90;;
1759;SDS011;877;46.266;20.062;2023-05-07T08:52:27;6.00;;;4.17;;
1759;SDS011;877;46.266;20.062;2023-05-07T08:54:53;5.77;;;3.53;;
1759;SDS011;877;46.266;20.062;2023-05-07T08:57:20;4.93;;;3.47;;
1759;SDS011;877;46.266;20.062;2023-05-07T08:59:46;5.73;;;3.40;;
1759;SDS011;877;46.266;20.062;2023-05-07T09:02:13;6.10;;;4.17;;
1759;SDS011;877;46.266;20.062;2023-05-07T09:04:39;5.30;;;4.10;;
1759;SDS011;877;46.266;20.062;2023-05-07T09:07:06;8.03;;;4.30;;
1759;SDS011;877;46.266;20.062;2023-05-07T09:09:33;6.20;;;3.67;;
1759;SDS011;877;46.266;20.062;2023-05-07T09:12:00;8.20;;;3.87;;
1759;SDS011;877;46.266;20.062;2023-05-07T09:14:28;5.53;;;3.13;;
1759;SDS011;877;46.266;20.062;2023-05-07T09:16:55;4.90;;;3.77;;
1759;SDS011;877;46.266;20.062;2023-05-07T09:19:23;5.97;;;4.07;;
1759;SDS011;877;46.266;20.062;2023-05-07T09:21:50;5.50;;;3.43;;
1759;SDS011;877;46.266;20.062;2023-05-07T09:24:23;4.90;;;3.60;;
1759;SDS011;877;46.266;20.062;2023-05-07T09:26:49;5.30;;;4.23;;
1759;SDS011;877;46.266;20.062;2023-05-07T09:29:15;5.80;;;3.80;;
1759;SDS011;877;46.266;20.062;2023-05-07T09:31:42;6.40;;;4.30;;
1759;SDS011;877;46.266;20.062;2023-05-07T09:34:08;7.40;;;3.87;;
1759;SDS011;877;46.266;20.062;2023-05-07T09:36:34;4.83;;;3.97;;
1759;SDS011;877;46.266;20.062;2023-05-07T09:39:01;5.80;;;4.23;;
1759;SDS011;877;46.266;20.062;2023-05-07T09:41:28;6.80;;;3.50;;
1759;SDS011;877;46.266;20.062;2023-05-07T09:43:57;7.90;;;3.57;;
1759;SDS011;877;46.266;20.062;2023-05-07T09:46:31;4.77;;;3.60;;
1759;SDS011;877;46.266;20.062;2023-05-07T09:49:01;6.00;;;4.20;;
1759;SDS011;877;46.266;20.062;2023-05-07T09:51:39;7.97;;;4.30;;
1759;SDS011;877;46.266;20.062;2023-05-07T09:54:05;6.23;;;4.43;;
1759;SDS011;877;46.266;20.062;2023-05-07T09:56:32;7.67;;;4.20;;
1759;SDS011;877;46.266;20.062;2023-05-07T09:59:01;10.07;;;3.67;;
1759;SDS011;877;46.266;20.062;2023-05-07T10:01:29;7.03;;;4.20;;
1759;SDS011;877;46.266;20.062;2023-05-07T10:03:57;5.30;;;3.70;;
1759;SDS011;877;46.266;20.062;2023-05-07T10:06:24;7.30;;;3.80;;
1759;SDS011;877;46.266;20.062;2023-05-07T10:08:51;7.60;;;4.30;;
1759;SDS011;877;46.266;20.062;2023-05-07T10:11:18;4.83;;;3.83;;
1759;SDS011;877;46.266;20.062;2023-05-07T10:13:44;5.83;;;3.77;;
1759;SDS011;877;46.266;20.062;2023-05-07T10:16:12;5.93;;;3.87;;
1759;SDS011;877;46.266;20.062;2023-05-07T10:18:38;7.63;;;4.20;;
1759;SDS011;877;46.266;20.062;2023-05-07T10:21:09;7.40;;;4.53;;
1759;SDS011;877;46.266;20.062;2023-05-07T10:23:37;4.20;;;3.60;;
1759;SDS011;877;46.266;20.062;2023-05-07T10:26:05;5.30;;;3.77;;
1759;SDS011;877;46.266;20.062;2023-05-07T10:28:33;6.23;;;3.00;;
1759;SDS011;877;46.266;20.062;2023-05-07T10:31:03;4.67;;;3.60;;
1759;SDS011;877;46.266;20.062;2023-05-07T10:33:33;9.17;;;3.47;;
1759;SDS011;877;46.266;20.062;2023-05-07T10:36:01;4.10;;;3.67;;
1759;SDS011;877;46.266;20.062;2023-05-07T10:38:30;7.63;;;4.10;;
1759;SDS011;877;46.266;20.062;2023-05-07T10:40:56;5.57;;;3.63;;
1759;SDS011;877;46.266;20.062;2023-05-07T10:43:23;4.33;;;3.10;;
1759;SDS011;877;46.266;20.062;2023-05-07T10:48:34;4.47;;;3.77;;
1759;SDS011;877;46.266;20.062;2023-05-07T10:51:21;4.60;;;3.50;;
1759;SDS011;877;46.266;20.062;2023-05-07T10:53:47;5.23;;;3.80;;
1759;SDS011;877;46.266;20.062;2023-05-07T10:58:43;6.70;;;4.00;;
1759;SDS011;877;46.266;20.062;2023-05-07T11:01:10;6.70;;;3.90;;
1759;SDS011;877;46.266;20.062;2023-05-07T11:04:12;5.83;;;4.40;;
1759;SDS011;877;46.266;20.062;2023-05-07T11:06:24;7.90;;;3.70;;
1759;SDS011;877;46.266;20.062;2023-05-07T11:08:57;9.90;;;4.93;;
1759;SDS011;877;46.266;20.062;2023-05-07T11:14:10;7.37;;;4.40;;
1759;SDS011;877;46.266;20.062;2023-05-07T11:16:37;7.17;;;4.30;;
1759;SDS011;877;46.266;20.062;2023-05-07T11:19:05;5.87;;;4.57;;
1759;SDS011;877;46.266;20.062;2023-05-07T11:21:32;5.83;;;4.03;;
1759;SDS011;877;46.266;20.062;2023-05-07T11:23:59;7.43;;;4.20;;
1759;SDS011;877;46.266;20.062;2023-05-07T11:26:43;9.57;;;4.43;;
1759;SDS011;877;46.266;20.062;2023-05-07T11:29:18;10.40;;;4.00;;
1759;SDS011;877;46.266;20.062;2023-05-07T11:31:48;8.43;;;5.00;;
1759;SDS011;877;46.266;20.062;2023-05-07T11:34:22;14.07;;;4.70;;
1759;SDS011;877;46.266;20.062;2023-05-07T11:36:48;11.53;;;4.57;;
1759;SDS011;877;46.266;20.062;2023-05-07T11:44:55;8.80;;;4.67;;
1759;SDS011;877;46.266;20.062;2023-05-07T11:47:21;5.53;;;4.17;;
1759;SDS011;877;46.266;20.062;2023-05-07T11:49:49;6.20;;;5.20;;
1759;SDS011;877;46.266;20.062;2023-05-07T11:52:16;8.17;;;6.10;;
1759;SDS011;877;46.266;20.062;2023-05-07T11:54:50;7.63;;;5.60;;
1759;SDS011;877;46.266;20.062;2023-05-07T11:57:16;8.53;;;5.93;;
1759;SDS011;877;46.266;20.062;2023-05-07T11:59:43;8.70;;;5.30;;
1759;SDS011;877;46.266;20.062;2023-05-07T12:02:10;9.40;;;5.70;;
1759;SDS011;877;46.266;20.062;2023-05-07T12:04:37;9.30;;;5.60;;
1759;SDS011;877;46.266;20.062;2023-05-07T12:07:04;5.87;;;5.30;;
1759;SDS011;877;46.266;20.062;2023-05-07T12:09:32;6.37;;;5.10;;
1759;SDS011;877;46.266;20.062;2023-05-07T12:12:03;6.00;;;4.80;;
1759;SDS011;877;46.266;20.062;2023-05-07T12:14:30;6.17;;;4.50;;
1759;SDS011;877;46.266;20.062;2023-05-07T12:16:57;7.57;;;5.17;;
1759;SDS011;877;46.266;20.062;2023-05-07T12:19:23;6.00;;;5.40;;
1759;SDS011;877;46.266;20.062;2023-05-07T12:21:50;6.50;;;5.20;;
1759;SDS011;877;46.266;20.062;2023-05-07T12:24:16;6.07;;;5.00;;
1759;SDS011;877;46.266;20.062;2023-05-07T12:26:43;6.73;;;5.10;;
1759;SDS011;877;46.266;20.062;2023-05-07T12:29:09;7.90;;;5.90;;
1759;SDS011;877;46.266;20.062;2023-05-07T12:31:36;9.30;;;5.23;;
1759;SDS011;877;46.266;20.062;2023-05-07T12:34:07;8.57;;;6.03;;
1759;SDS011;877;46.266;20.062;2023-05-07T12:36:37;6.20;;;5.60;;
1759;SDS011;877;46.266;20.062;2023-05-07T12:39:05;6.70;;;5.60;;
1759;SDS011;877;46.266;20.062;2023-05-07T12:41:35;7.07;;;5.53;;
1759;SDS011;877;46.266;20.062;2023-05-07T12:44:04;7.50;;;6.00;;
1759;SDS011;877;46.266;20.062;2023-05-07T12:46:30;7.30;;;5.70;;
1759;SDS011;877;46.266;20.062;2023-05-07T12:48:57;5.90;;;4.93;;
1759;SDS011;877;46.266;20.062;2023-05-07T12:51:23;7.10;;;5.50;;
1759;SDS011;877;46.266;20.062;2023-05-07T12:53:50;7.80;;;5.80;;
1759;SDS011;877;46.266;20.062;2023-05-07T12:56:18;6.97;;;5.40;;
1759;SDS011;877;46.266;20.062;2023-05-07T12:58:45;7.20;;;5.63;;
1759;SDS011;877;46.266;20.062;2023-05-07T13:01:15;7.43;;;4.87;;
1759;SDS011;877;46.266;20.062;2023-05-07T13:03:48;14.73;;;5.40;;
1759;SDS011;877;46.266;20.062;2023-05-07T13:06:16;7.23;;;5.20;;
1759;SDS011;877;46.266;20.062;2023-05-07T13:08:42;6.27;;;4.60;;
1759;SDS011;877;46.266;20.062;2023-05-07T13:11:10;8.00;;;4.93;;
1759;SDS011;877;46.266;20.062;2023-05-07T13:13:36;6.73;;;4.67;;
1759;SDS011;877;46.266;20.062;2023-05-07T13:16:04;5.77;;;4.07;;
1759;SDS011;877;46.266;20.062;2023-05-07T13:18:31;7.40;;;4.97;;
1759;SDS011;877;46.266;20.062;2023-05-07T13:20:58;17.93;;;12.00;;
1759;SDS011;877;46.266;20.062;2023-05-07T13:23:25;11.30;;;8.00;;
1759;SDS011;877;46.266;20.062;2023-05-07T13:25:51;6.30;;;5.37;;
1759;SDS011;877;46.266;20.062;2023-05-07T13:28:22;5.23;;;4.53;;
1759;SDS011;877;46.266;20.062;2023-05-07T13:30:50;7.40;;;6.00;;
1759;SDS011;877;46.266;20.062;2023-05-07T13:33:20;6.33;;;4.63;;
1759;SDS011;877;46.266;20.062;2023-05-07T13:35:46;5.50;;;4.17;;
1759;SDS011;877;46.266;20.062;2023-05-07T13:38:13;5.87;;;4.20;;
1759;SDS011;877;46.266;20.062;2023-05-07T13:40:42;8.00;;;4.50;;
1759;SDS011;877;46.266;20.062;2023-05-07T13:43:10;8.30;;;4.90;;
1759;SDS011;877;46.266;20.062;2023-05-07T13:45:36;6.30;;;4.70;;
1759;SDS011;877;46.266;20.062;2023-05-07T13:48:02;6.97;;;4.23;;
1759;SDS011;877;46.266;20.062;2023-05-07T13:50:32;6.90;;;4.03;;
1759;SDS011;877;46.266;20.062;2023-05-07T13:52:59;6.10;;;4.30;;
1759;SDS011;877;46.266;20.062;2023-05-07T13:55:25;5.73;;;4.80;;
1759;SDS011;877;46.266;20.062;2023-05-07T13:57:55;5.50;;;4.90;;
1759;SDS011;877;46.266;20.062;2023-05-07T14:00:23;6.57;;;5.43;;
1759;SDS011;877;46.266;20.062;2023-05-07T14:02:49;5.83;;;4.90;;
1759;SDS011;877;46.266;20.062;2023-05-07T14:05:16;6.47;;;5.40;;
1759;SDS011;877;46.266;20.062;2023-05-07T14:07:42;5.00;;;4.50;;
1759;SDS011;877;46.266;20.062;2023-05-07T14:12:38;10.60;;;5.60;;
1759;SDS011;877;46.266;20.062;2023-05-07T14:15:04;6.53;;;4.80;;
1759;SDS011;877;46.266;20.062;2023-05-07T14:17:31;6.67;;;4.93;;
1759;SDS011;877;46.266;20.062;2023-05-07T14:19:58;7.07;;;5.00;;
1759;SDS011;877;46.266;20.062;2023-05-07T14:22:25;9.67;;;5.00;;
1759;SDS011;877;46.266;20.062;2023-05-07T14:24:51;5.77;;;4.20;;
1759;SDS011;877;46.266;20.062;2023-05-07T14:27:17;8.20;;;5.40;;
1759;SDS011;877;46.266;20.062;2023-05-07T14:29:43;6.30;;;4.97;;
1759;SDS011;877;46.266;20.062;2023-05-07T14:32:10;6.07;;;5.10;;
1759;SDS011;877;46.266;20.062;2023-05-07T14:34:37;6.63;;;4.60;;
1759;SDS011;877;46.266;20.062;2023-05-07T14:37:03;10.33;;;4.97;;
1759;SDS011;877;46.266;20.062;2023-05-07T14:39:29;5.47;;;4.00;;
1759;SDS011;877;46.266;20.062;2023-05-07T14:41:55;10.37;;;4.70;;
1759;SDS011;877;46.266;20.062;2023-05-07T14:44:22;6.67;;;4.73;;
1759;SDS011;877;46.266;20.062;2023-05-07T14:46:48;12.53;;;5.20;;
1759;SDS011;877;46.266;20.062;2023-05-07T14:49:17;7.37;;;5.00;;
1759;SDS011;877;46.266;20.062;2023-05-07T14:51:44;8.47;;;5.10;;
1759;SDS011;877;46.266;20.062;2023-05-07T14:54:10;5.70;;;4.93;;
1759;SDS011;877;46.266;20.062;2023-05-07T14:56:36;5.83;;;5.23;;
1759;SDS011;877;46.266;20.062;2023-05-07T14:59:02;6.80;;;5.90;;
1759;SDS011;877;46.266;20.062;2023-05-07T15:01:29;6.57;;;5.73;;
1759;SDS011;877;46.266;20.062;2023-05-07T15:03:55;7.07;;;5.13;;
1759;SDS011;877;46.266;20.062;2023-05-07T15:06:21;8.10;;;5.50;;
1759;SDS011;877;46.266;20.062;2023-05-07T15:08:48;6.13;;;5.27;;
1759;SDS011;877;46.266;20.062;2023-05-07T15:11:14;6.13;;;5.30;;
1759;SDS011;877;46.266;20.062;2023-05-07T15:13:42;9.03;;;5.63;;
1759;SDS011;877;46.266;20.062;2023-05-07T15:16:08;7.03;;;5.50;;
1759;SDS011;877;46.266;20.062;2023-05-07T15:18:34;6.30;;;5.07;;
1759;SDS011;877;46.266;20.062;2023-05-07T15:21:01;7.10;;;5.67;;
1759;SDS011;877;46.266;20.062;2023-05-07T15:23:28;6.90;;;5.73;;
1759;SDS011;877;46.266;20.062;2023-05-07T15:25:55;6.80;;;5.20;;
1759;SDS011;877;46.266;20.062;2023-05-07T15:28:21;7.70;;;6.03;;
1759;SDS011;877;46.266;20.062;2023-05-07T15:30:49;7.70;;;5.90;;
1759;SDS011;877;46.266;20.062;2023-05-07T15:33:15;7.03;;;6.00;;
1759;SDS011;877;46.266;20.062;2023-05-07T15:35:42;8.47;;;6.20;;
1759;SDS011;877;46.266;20.062;2023-05-07T15:38:08;6.00;;;5.10;;
1759;SDS011;877;46.266;20.062;2023-05-07T15:40:35;6.47;;;5.47;;